sensor_id;sensor_type;location;lat;lon;timestamp;pressure;altitude;pressure_sealevel;temperature;humidity
60725;BME280;59881;36.722;-4.462;2024-03-02T08:47:29;100606.25;;;34.01;16.70
60725;BME280;59881;36.722;-4.462;2024-03-02T08:49:55;100674.59;;;34.33;16.98
60725;BME280;59881;36.722;-4.462;2024-03-02T08:52:22;100777.94;;;35.28;17.16
60725;BME280;59881;36.722;-4.462;2024-03-02T08:54:48;100293.06;;;32.83;16.16
60725;BME280;59881;36.722;-4.462;2024-03-02T13:34:35;100523.66;;;20.30;37.72
60725;BME280;59881;36.722;-4.462;2024-03-02T13:37:03;100137.03;;;18.02;38.90
60725;BME280;59881;36.722;-4.462;2024-03-02T13:39:29;100264.72;;;18.89;39.09
60725;BME280;59881;36.722;-4.462;2024-03-02T13:42:00;100508.25;;;20.40;39.07
60725;BME280;59881;36.722;-4.462;2024-03-02T13:44:31;100508.44;;;20.30;38.90
60725;BME280;59881;36.722;-4.462;2024-03-02T13:46:56;100252.13;;;18.73;38.59
60725;BME280;59881;36.722;-4.462;2024-03-02T13:49:23;100587.66;;;20.47;38.49
60725;BME280;59881;36.722;-4.462;2024-03-02T13:51:49;100420.06;;;19.99;38.40
60725;BME280;59881;36.722;-4.462;2024-03-02T13:54:15;99341.22;;;13.20;38.33
60725;BME280;59881;36.722;-4.462;2024-03-02T13:56:41;100215.72;;;18.31;38.58
60725;BME280;59881;36.722;-4.462;2024-03-02T13:59:07;100435.97;;;19.59;38.65
60725;BME280;59881;36.722;-4.462;2024-03-02T14:01:33;100544.56;;;19.85;38.96
60725;BME280;59881;36.722;-4.462;2024-03-02T14:03:59;100193.97;;;17.50;39.36
60725;BME280;59881;36.722;-4.462;2024-03-02T14:06:24;100178.69;;;17.00;39.68
60725;BME280;59881;36.722;-4.462;2024-03-02T14:08:52;100519.53;;;19.19;39.66
60725;BME280;59881;36.722;-4.462;2024-03-02T14:11:18;99901.63;;;15.30;40.33
60725;BME280;59881;36.722;-4.462;2024-03-02T14:13:44;100059.50;;;16.07;40.97
60725;BME280;59881;36.722;-4.462;2024-03-02T14:16:15;100192.81;;;16.57;41.66
60725;BME280;59881;36.722;-4.462;2024-03-02T14:18:41;100074.13;;;15.93;41.73
60725;BME280;59881;36.722;-4.462;2024-03-02T14:21:07;100476.53;;;18.53;42.36
60725;BME280;59881;36.722;-4.462;2024-03-02T14:23:33;99826.06;;;14.43;42.52
60725;BME280;59881;36.722;-4.462;2024-03-02T14:25:59;100233.38;;;16.94;42.62
60725;BME280;59881;36.722;-4.462;2024-03-02T14:28:25;100186.72;;;16.64;42.60
60725;BME280;59881;36.722;-4.462;2024-03-02T14:30:51;100119.56;;;15.72;42.59
60725;BME280;59881;36.722;-4.462;2024-03-02T14:33:16;100219.31;;;16.66;42.88
60725;BME280;59881;36.722;-4.462;2024-03-02T14:35:44;100219.31;;;16.84;42.59
60725;BME280;59881;36.722;-4.462;2024-03-02T14:38:11;100211.34;;;16.84;42.60
60725;BME280;59881;36.722;-4.462;2024-03-02T14:40:36;100391.84;;;17.87;42.21
60725;BME280;59881;36.722;-4.462;2024-03-02T14:43:02;100122.41;;;16.43;42.08
60725;BME280;59881;36.722;-4.462;2024-03-02T14:45:28;100242.34;;;16.58;41.96
60725;BME280;59881;36.722;-4.462;2024-03-02T14:47:54;100365.19;;;17.69;41.98
60725;BME280;59881;36.722;-4.462;2024-03-02T14:50:21;100239.91;;;17.00;41.62
60725;BME280;59881;36.722;-4.462;2024-03-02T14:52:46;100029.75;;;15.86;41.22
60725;BME280;59881;36.722;-4.462;2024-03-02T14:55:12;100264.13;;;17.93;41.15
60725;BME280;59881;36.722;-4.462;2024-03-02T14:57:38;100444.28;;;19.32;40.87
60725;BME280;59881;36.722;-4.462;2024-03-02T15:00:05;100433.28;;;19.68;40.36
60725;BME280;59881;36.722;-4.462;2024-03-02T15:02:33;100221.00;;;18.90;39.67
60725;BME280;59881;36.722;-4.462;2024-03-02T15:04:59;100405.13;;;20.29;38.93
60725;BME280;59881;36.722;-4.462;2024-03-02T15:07:25;100204.44;;;18.70;38.16
60725;BME280;59881;36.722;-4.462;2024-03-02T15:09:51;100394.88;;;20.41;37.60
60725;BME280;59881;36.722;-4.462;2024-03-02T15:12:16;99842.75;;;16.82;37.32
60725;BME280;59881;36.722;-4.462;2024-03-02T15:14:43;99418.38;;;14.48;37.55
60725;BME280;59881;36.722;-4.462;2024-03-02T15:17:15;100393.59;;;20.29;37.55
60725;BME280;59881;36.722;-4.462;2024-03-02T15:19:45;99675.97;;;15.82;37.79
60725;BME280;59881;36.722;-4.462;2024-03-02T15:22:11;100184.13;;;18.69;37.78
60725;BME280;59881;36.722;-4.462;2024-03-02T15:24:37;99679.94;;;15.44;37.89
60725;BME280;59881;36.722;-4.462;2024-03-02T15:27:04;100377.03;;;19.77;38.27
60725;BME280;59881;36.722;-4.462;2024-03-02T15:29:34;100219.16;;;17.98;38.26
60725;BME280;59881;36.722;-4.462;2024-03-02T15:32:01;100385.03;;;19.53;38.64
60725;BME280;59881;36.722;-4.462;2024-03-02T15:34:28;99672.63;;;15.11;38.83
60725;BME280;59881;36.722;-4.462;2024-03-02T15:36:54;100121.16;;;17.76;38.61
60725;BME280;59881;36.722;-4.462;2024-03-02T15:39:20;100176.06;;;17.69;38.72
60725;BME280;59881;36.722;-4.462;2024-03-02T15:41:45;99980.09;;;16.91;38.95
60725;BME280;59881;36.722;-4.462;2024-03-02T15:44:11;99990.31;;;17.12;38.90
60725;BME280;59881;36.722;-4.462;2024-03-02T15:46:37;100387.53;;;19.38;39.06
60725;BME280;59881;36.722;-4.462;2024-03-02T15:49:02;100087.13;;;17.53;38.97
60725;BME280;59881;36.722;-4.462;2024-03-02T15:51:30;99683.38;;;14.84;39.00
60725;BME280;59881;36.722;-4.462;2024-03-02T15:53:56;100417.31;;;18.84;39.54
60725;BME280;59881;36.722;-4.462;2024-03-02T15:56:22;99651.34;;;14.23;39.79
60725;BME280;59881;36.722;-4.462;2024-03-02T15:58:47;100406.22;;;18.63;39.70
60725;BME280;59881;36.722;-4.462;2024-03-02T16:01:13;100004.22;;;15.93;40.34
60725;BME280;59881;36.722;-4.462;2024-03-02T16:03:39;100195.06;;;17.13;40.38
60725;BME280;59881;36.722;-4.462;2024-03-02T16:06:05;100352.66;;;18.56;40.42
60725;BME280;59881;36.722;-4.462;2024-03-02T16:08:31;99688.22;;;14.35;40.54
60725;BME280;59881;36.722;-4.462;2024-03-02T16:10:56;99772.88;;;14.54;41.01
60725;BME280;59881;36.722;-4.462;2024-03-02T16:13:22;99909.28;;;14.22;41.24
60725;BME280;59881;36.722;-4.462;2024-03-02T16:15:48;100378.47;;;18.05;41.21
60725;BME280;59881;36.722;-4.462;2024-03-02T16:18:14;100363.38;;;17.95;41.40
60725;BME280;59881;36.722;-4.462;2024-03-02T16:20:39;99812.34;;;14.02;41.29
60725;BME280;59881;36.722;-4.462;2024-03-02T16:23:06;100169.13;;;16.71;41.12
60725;BME280;59881;36.722;-4.462;2024-03-02T16:25:32;100103.50;;;16.28;40.67
60725;BME280;59881;36.722;-4.462;2024-03-02T16:27:58;100162.09;;;16.80;40.26
60725;BME280;59881;36.722;-4.462;2024-03-02T16:30:26;99631.66;;;13.62;40.07
60725;BME280;59881;36.722;-4.462;2024-03-02T16:32:52;100205.91;;;17.12;39.67
60725;BME280;59881;36.722;-4.462;2024-03-02T16:35:17;100263.09;;;17.08;39.61
60725;BME280;59881;36.722;-4.462;2024-03-02T16:37:43;100397.47;;;17.84;39.07
60725;BME280;59881;36.722;-4.462;2024-03-02T16:40:09;100337.88;;;17.85;39.30
60725;BME280;59881;36.722;-4.462;2024-03-02T16:42:35;100369.88;;;17.93;39.29
60725;BME280;59881;36.722;-4.462;2024-03-02T16:45:00;100152.72;;;16.32;39.29
60725;BME280;59881;36.722;-4.462;2024-03-02T16:47:26;100063.78;;;16.26;39.47
60725;BME280;59881;36.722;-4.462;2024-03-02T16:49:51;100400.28;;;17.82;39.44
60725;BME280;59881;36.722;-4.462;2024-03-02T16:52:17;100366.41;;;17.74;39.63
60725;BME280;59881;36.722;-4.462;2024-03-02T16:54:43;100228.44;;;16.46;39.44
60725;BME280;59881;36.722;-4.462;2024-03-02T16:57:09;100020.66;;;15.61;39.45
60725;BME280;59881;36.722;-4.462;2024-03-02T16:59:35;100348.28;;;17.78;39.50
60725;BME280;59881;36.722;-4.462;2024-03-02T17:02:01;100231.50;;;17.13;39.07
60725;BME280;59881;36.722;-4.462;2024-03-02T17:04:26;100054.16;;;15.89;39.03
60725;BME280;59881;36.722;-4.462;2024-03-02T17:06:52;100304.09;;;17.67;38.82
60725;BME280;59881;36.722;-4.462;2024-03-02T17:09:18;100032.31;;;15.78;38.65
60725;BME280;59881;36.722;-4.462;2024-03-02T17:11:44;100106.91;;;15.84;38.58
60725;BME280;59881;36.722;-4.462;2024-03-02T17:14:09;100157.03;;;16.33;38.53
60725;BME280;59881;36.722;-4.462;2024-03-02T17:16:35;100144.34;;;15.63;38.70
60725;BME280;59881;36.722;-4.462;2024-03-02T17:19:00;99774.00;;;13.69;38.81
60725;BME280;59881;36.722;-4.462;2024-03-02T17:21:26;100152.91;;;16.03;38.58
60725;BME280;59881;36.722;-4.462;2024-03-02T17:23:51;99667.88;;;13.15;38.70
60725;BME280;59881;36.722;-4.462;2024-03-02T17:26:17;100381.47;;;17.04;38.67
60725;BME280;59881;36.722;-4.462;2024-03-02T17:28:42;100052.19;;;15.28;38.54
60725;BME280;59881;36.722;-4.462;2024-03-02T17:31:09;100063.03;;;15.35;38.79
60725;BME280;59881;36.722;-4.462;2024-03-02T17:33:35;100178.38;;;16.05;38.94
60725;BME280;59881;36.722;-4.462;2024-03-02T17:36:01;100315.63;;;16.88;39.06
60725;BME280;59881;36.722;-4.462;2024-03-02T17:38:26;100304.50;;;16.57;38.98
60725;BME280;59881;36.722;-4.462;2024-03-02T17:40:53;100235.34;;;16.39;38.71
60725;BME280;59881;36.722;-4.462;2024-03-02T17:43:18;100012.50;;;14.99;39.06
60725;BME280;59881;36.722;-4.462;2024-03-02T17:45:44;100307.44;;;16.81;39.02
60725;BME280;59881;36.722;-4.462;2024-03-02T17:48:09;100308.81;;;16.75;39.20
60725;BME280;59881;36.722;-4.462;2024-03-02T17:50:38;100349.34;;;16.69;39.29
60725;BME280;59881;36.722;-4.462;2024-03-02T17:53:04;100316.19;;;16.64;39.96
60725;BME280;59881;36.722;-4.462;2024-03-02T17:55:29;99761.44;;;12.75;39.95
60725;BME280;59881;36.722;-4.462;2024-03-02T17:57:56;100299.78;;;16.50;39.95
60725;BME280;59881;36.722;-4.462;2024-03-02T18:00:21;99509.31;;;11.22;40.01
60725;BME280;59881;36.722;-4.462;2024-03-02T18:02:47;100317.06;;;16.37;40.03
60725;BME280;59881;36.722;-4.462;2024-03-02T18:05:13;100102.19;;;14.85;39.94
60725;BME280;59881;36.722;-4.462;2024-03-02T18:07:39;99646.34;;;11.73;40.14
60725;BME280;59881;36.722;-4.462;2024-03-02T18:10:05;100304.31;;;16.12;40.00
60725;BME280;59881;36.722;-4.462;2024-03-02T18:12:31;99625.44;;;11.91;39.97
60725;BME280;59881;36.722;-4.462;2024-03-02T18:14:57;100121.06;;;14.34;40.24
60725;BME280;59881;36.722;-4.462;2024-03-02T18:17:23;100127.78;;;14.08;40.28
60725;BME280;59881;36.722;-4.462;2024-03-02T18:19:52;99751.50;;;12.28;40.34
60725;BME280;59881;36.722;-4.462;2024-03-02T18:22:18;100343.38;;;16.02;40.37
60725;BME280;59881;36.722;-4.462;2024-03-02T18:24:44;100312.25;;;15.95;40.54
60725;BME280;59881;36.722;-4.462;2024-03-02T18:27:12;100318.44;;;15.85;40.70
60725;BME280;59881;36.722;-4.462;2024-03-02T18:29:38;100320.97;;;15.77;41.01
60725;BME280;59881;36.722;-4.462;2024-03-02T18:32:05;100119.09;;;13.97;40.92
60725;BME280;59881;36.722;-4.462;2024-03-02T18:34:30;100030.19;;;14.04;40.86
60725;BME280;59881;36.722;-4.462;2024-03-02T18:36:57;100010.94;;;13.34;40.97
60725;BME280;59881;36.722;-4.462;2024-03-02T18:39:22;100374.66;;;15.81;40.96
60725;BME280;59881;36.722;-4.462;2024-03-02T18:41:48;100378.13;;;15.81;41.04
60725;BME280;59881;36.722;-4.462;2024-03-02T18:44:14;99925.16;;;13.36;41.07
60725;BME280;59881;36.722;-4.462;2024-03-02T18:46:39;100082.88;;;13.87;41.43
60725;BME280;59881;36.722;-4.462;2024-03-02T18:49:05;99980.22;;;13.21;41.55
60725;BME280;59881;36.722;-4.462;2024-03-02T18:51:30;100102.53;;;13.85;41.75
60725;BME280;59881;36.722;-4.462;2024-03-02T18:53:56;100112.00;;;13.87;42.17
60725;BME280;59881;36.722;-4.462;2024-03-02T18:56:21;100131.69;;;14.34;42.36
60725;BME280;59881;36.722;-4.462;2024-03-02T18:58:47;100317.09;;;15.52;42.95
60725;BME280;59881;36.722;-4.462;2024-03-02T19:01:14;99789.59;;;11.64;42.88
60725;BME280;59881;36.722;-4.462;2024-03-02T19:03:40;100321.19;;;15.37;43.15
60725;BME280;59881;36.722;-4.462;2024-03-02T19:06:13;100425.78;;;15.34;43.55
60725;BME280;59881;36.722;-4.462;2024-03-02T19:08:39;100326.06;;;15.31;43.69
60725;BME280;59881;36.722;-4.462;2024-03-02T19:11:05;99716.56;;;11.13;43.84
60725;BME280;59881;36.722;-4.462;2024-03-02T19:13:30;100329.84;;;15.29;43.62
60725;BME280;59881;36.722;-4.462;2024-03-02T19:15:57;100097.75;;;13.79;43.72
60725;BME280;59881;36.722;-4.462;2024-03-02T19:18:22;100391.16;;;15.26;43.97
60725;BME280;59881;36.722;-4.462;2024-03-02T19:20:49;99973.16;;;12.72;43.75
60725;BME280;59881;36.722;-4.462;2024-03-02T19:23:16;100221.75;;;14.34;44.03
60725;BME280;59881;36.722;-4.462;2024-03-02T19:25:42;100117.25;;;13.28;43.98
60725;BME280;59881;36.722;-4.462;2024-03-02T19:28:07;99881.09;;;12.36;44.09
60725;BME280;59881;36.722;-4.462;2024-03-02T19:30:33;100312.25;;;14.99;44.39
60725;BME280;59881;36.722;-4.462;2024-03-02T19:32:58;100310.59;;;14.98;45.18
60725;BME280;59881;36.722;-4.462;2024-03-02T19:35:24;100261.03;;;14.59;45.30
60725;BME280;59881;36.722;-4.462;2024-03-02T19:37:51;100321.91;;;14.90;45.34
60725;BME280;59881;36.722;-4.462;2024-03-02T19:40:17;100290.03;;;14.61;46.16
60725;BME280;59881;36.722;-4.462;2024-03-02T19:42:42;100154.47;;;13.76;46.63
60725;BME280;59881;36.722;-4.462;2024-03-02T19:45:09;100073.13;;;13.28;46.62
60725;BME280;59881;36.722;-4.462;2024-03-02T19:47:35;99949.75;;;11.52;47.08
60725;BME280;59881;36.722;-4.462;2024-03-02T19:50:01;100333.06;;;14.84;47.10
60725;BME280;59881;36.722;-4.462;2024-03-02T19:52:29;100317.69;;;14.78;47.37
60725;BME280;59881;36.722;-4.462;2024-03-02T19:54:55;100332.63;;;14.98;47.38
60725;BME280;59881;36.722;-4.462;2024-03-02T19:57:20;100334.03;;;15.02;47.22
60725;BME280;59881;36.722;-4.462;2024-03-02T19:59:48;100332.09;;;15.04;47.11
60725;BME280;59881;36.722;-4.462;2024-03-02T20:02:14;99962.66;;;12.91;46.98
60725;BME280;59881;36.722;-4.462;2024-03-02T20:04:39;100282.22;;;14.79;47.12
60725;BME280;59881;36.722;-4.462;2024-03-02T20:07:05;100311.00;;;14.93;47.17
60725;BME280;59881;36.722;-4.462;2024-03-02T20:09:30;99939.00;;;12.59;47.35
60725;BME280;59881;36.722;-4.462;2024-03-02T20:11:56;100306.25;;;14.87;47.47
60725;BME280;59881;36.722;-4.462;2024-03-02T20:14:23;100125.09;;;13.79;47.23
60725;BME280;59881;36.722;-4.462;2024-03-02T20:16:49;99999.19;;;12.86;47.32
60725;BME280;59881;36.722;-4.462;2024-03-02T20:19:15;99921.91;;;12.53;47.30
60725;BME280;59881;36.722;-4.462;2024-03-02T20:21:43;100143.75;;;13.78;47.24
60725;BME280;59881;36.722;-4.462;2024-03-02T20:24:09;99813.88;;;11.58;47.27
60725;BME280;59881;36.722;-4.462;2024-03-02T20:26:37;99966.47;;;12.77;47.24
60725;BME280;59881;36.722;-4.462;2024-03-02T20:29:03;100302.63;;;14.88;47.43
60725;BME280;59881;36.722;-4.462;2024-03-02T20:31:29;100208.34;;;14.16;47.53
60725;BME280;59881;36.722;-4.462;2024-03-02T20:33:55;100300.81;;;14.98;47.83
60725;BME280;59881;36.722;-4.462;2024-03-02T20:36:20;100304.03;;;15.02;48.22
60725;BME280;59881;36.722;-4.462;2024-03-02T20:38:46;100236.47;;;14.67;47.98
60725;BME280;59881;36.722;-4.462;2024-03-02T20:41:19;100258.78;;;14.74;48.32
60725;BME280;59881;36.722;-4.462;2024-03-02T20:43:45;100326.34;;;15.09;48.41
60725;BME280;59881;36.722;-4.462;2024-03-02T20:46:11;99922.13;;;12.81;48.54
60725;BME280;59881;36.722;-4.462;2024-03-02T20:48:37;100228.25;;;14.70;48.72
60725;BME280;59881;36.722;-4.462;2024-03-02T20:51:03;100323.84;;;15.17;48.83
60725;BME280;59881;36.722;-4.462;2024-03-02T20:53:29;99928.41;;;12.90;48.84
60725;BME280;59881;36.722;-4.462;2024-03-02T20:55:54;100192.78;;;14.42;49.15
60725;BME280;59881;36.722;-4.462;2024-03-02T20:58:20;100292.84;;;15.08;49.36
60725;BME280;59881;36.722;-4.462;2024-03-02T21:00:45;100210.50;;;14.61;50.01
60725;BME280;59881;36.722;-4.462;2024-03-02T21:03:11;100298.28;;;15.26;50.04
60725;BME280;59881;36.722;-4.462;2024-03-02T21:05:36;100183.84;;;14.53;49.86
60725;BME280;59881;36.722;-4.462;2024-03-02T21:08:02;100227.41;;;14.79;50.18
60725;BME280;59881;36.722;-4.462;2024-03-02T21:10:28;100300.25;;;15.24;50.36
60725;BME280;59881;36.722;-4.462;2024-03-02T21:12:53;100075.91;;;13.86;50.78
60725;BME280;59881;36.722;-4.462;2024-03-02T21:15:19;100309.72;;;15.26;50.79
60725;BME280;59881;36.722;-4.462;2024-03-02T21:17:45;100306.25;;;15.26;50.75
60725;BME280;59881;36.722;-4.462;2024-03-02T21:20:11;100309.72;;;15.26;50.87
60725;BME280;59881;36.722;-4.462;2024-03-02T21:22:38;100302.59;;;15.27;51.06
60725;BME280;59881;36.722;-4.462;2024-03-02T21:25:06;100305.25;;;15.27;51.08
60725;BME280;59881;36.722;-4.462;2024-03-02T21:27:38;100349.00;;;15.03;51.12
60725;BME280;59881;36.722;-4.462;2024-03-02T21:30:07;100296.47;;;15.17;51.32
60725;BME280;59881;36.722;-4.462;2024-03-02T21:32:34;100282.09;;;15.09;51.96
60725;BME280;59881;36.722;-4.462;2024-03-02T21:35:00;100160.25;;;14.30;52.35
60725;BME280;59881;36.722;-4.462;2024-03-02T21:37:26;100316.69;;;15.27;52.92
60725;BME280;59881;36.722;-4.462;2024-03-02T21:39:53;100329.13;;;15.27;53.38
60725;BME280;59881;36.722;-4.462;2024-03-02T21:42:19;100050.78;;;13.61;53.76
60725;BME280;59881;36.722;-4.462;2024-03-02T21:44:45;100288.59;;;14.47;54.13
60725;BME280;59881;36.722;-4.462;2024-03-02T21:47:10;99821.19;;;12.06;53.96
60725;BME280;59881;36.722;-4.462;2024-03-02T21:49:36;100305.53;;;15.14;54.40
60725;BME280;59881;36.722;-4.462;2024-03-02T21:52:02;100313.78;;;15.11;55.16
60725;BME280;59881;36.722;-4.462;2024-03-02T21:54:28;100183.72;;;14.35;55.58
60725;BME280;59881;36.722;-4.462;2024-03-02T23:17:20;100082.13;;;13.47;62.66
60725;BME280;59881;36.722;-4.462;2024-03-02T23:19:46;99980.53;;;12.78;62.47
60725;BME280;59881;36.722;-4.462;2024-03-02T23:22:12;100260.47;;;14.56;62.79
60725;BME280;59881;36.722;-4.462;2024-03-02T23:24:38;100071.97;;;13.21;62.80
60725;BME280;59881;36.722;-4.462;2024-03-02T23:27:04;100248.13;;;14.45;63.04
60725;BME280;59881;36.722;-4.462;2024-03-02T23:29:30;100201.53;;;14.13;63.18
60725;BME280;59881;36.722;-4.462;2024-03-02T23:31:58;99918.03;;;12.27;63.29
60725;BME280;59881;36.722;-4.462;2024-03-02T23:34:23;99804.09;;;11.79;63.62
60725;BME280;59881;36.722;-4.462;2024-03-02T23:36:49;100253.84;;;14.50;63.88
60725;BME280;59881;36.722;-4.462;2024-03-02T23:39:15;100285.41;;;14.53;64.03
60725;BME280;59881;36.722;-4.462;2024-03-02T23:42:03;100293.81;;;14.58;64.33
60725;BME280;59881;36.722;-4.462;2024-03-02T23:44:29;100188.81;;;13.57;64.75
60725;BME280;59881;36.722;-4.462;2024-03-02T23:46:54;100408.09;;;14.65;64.84
60725;BME280;59881;36.722;-4.462;2024-03-02T23:49:20;100333.88;;;14.24;65.15
60725;BME280;59881;36.722;-4.462;2024-03-02T23:51:46;100267.97;;;13.60;64.94
60725;BME280;59881;36.722;-4.462;2024-03-02T23:54:12;100036.38;;;11.68;64.63
60725;BME280;59881;36.722;-4.462;2024-03-02T23:56:37;100282.00;;;13.30;64.57
60725;BME280;59881;36.722;-4.462;2024-03-02T23:59:03;100375.25;;;13.64;64.38
